Time;durP1;ratioP1;P1;durP2;ratioP2;P2;SDS_P1;SDS_P2;PMS_P1;PMS_P2;Temp;Humidity;BMP_temperature;BMP_pressure;BME280_temperature;BME280_humidity;BME280_pressure;Samples;Min_cycle;Max_cycle;Signal;HPM_P1;HPM_P2
2023/05/20 00:13:15;;;;;;;5.15;2.08;;;;;;;18.15;64.85;96058.56;5036050;28;20397;-31
2023/05/20 00:29:08;;;;;;;3.63;1.85;;;;;;;18.27;64.45;96034.72;5036017;28;20032;-29
2023/05/20 00:42:33;;;;;;;4.38;2.30;;;;;;;18.27;64.29;95997.03;5035827;28;20489;-29
2023/05/20 00:58:24;;;;;;;3.05;1.85;;;;;;;18.19;64.42;95984.97;5052051;28;20131;-29
2023/05/20 01:14:17;;;;;;;2.83;2.05;;;;;;;18.07;64.34;95966.16;5036663;28;20028;-29
2023/05/20 01:43:38;;;;;;;4.35;1.95;;;;;;;18.13;63.56;95912.84;5001871;28;20056;-29
2023/05/20 01:59:30;;;;;;;5.43;2.05;;;;;;;18.22;63.20;95909.16;5022214;28;20524;-29
2023/05/20 02:15:23;;;;;;;4.47;1.70;;;;;;;18.11;63.27;95912.56;5033854;28;20130;-29
2023/05/20 02:28:28;;;;;;;4.13;1.70;;;;;;;18.11;62.76;95898.09;5041399;28;20029;-29
2023/05/20 02:44:20;;;;;;;4.70;1.60;;;;;;;18.00;63.21;95887.78;5034597;28;20025;-29
2023/05/20 03:00:13;;;;;;;3.65;1.48;;;;;;;17.81;63.95;95890.13;5026864;28;20064;-29
2023/05/20 03:16:05;;;;;;;3.38;1.60;;;;;;;18.03;63.43;95895.06;5032796;28;20031;-31
2023/05/20 03:29:13;;;;;;;2.97;1.67;;;;;;;18.14;63.04;95894.38;5032998;28;20032;-30
2023/05/20 03:45:06;;;;;;;3.42;1.90;;;;;;;18.18;63.00;95889.41;5040067;28;20044;-29
2023/05/20 04:00:57;;;;;;;1.70;0.90;;;;;;;18.07;63.03;95879.09;5025742;28;20060;-31
2023/05/20 04:16:50;;;;;;;3.22;1.40;;;;;;;18.06;63.35;95872.09;5032501;28;20401;-30
2023/05/20 04:29:54;;;;;;;2.03;1.08;;;;;;;17.81;63.80;95884.66;5036427;28;20028;-29
2023/05/20 04:46:06;;;;;;;2.85;1.20;;;;;;;18.01;63.25;95889.31;5036746;28;20040;-30
2023/05/20 04:48:32;;;;;;;2.47;1.02;;;;;;;18.04;63.30;95882.09;5036067;28;20120;-30
2023/05/20 05:01:03;;;;;;;3.25;1.45;;;;;;;18.05;63.32;95887.06;5027968;28;20056;-30
2023/05/20 05:16:55;;;;;;;1.48;1.02;;;;;;;18.00;63.35;95882.31;5035406;28;20036;-29
2023/05/20 05:32:47;;;;;;;2.08;1.02;;;;;;;17.95;62.84;95850.84;5034938;28;20044;-29
2023/05/20 05:45:48;;;;;;;2.20;1.10;;;;;;;17.96;63.15;95851.59;5035218;28;20075;-29
2023/05/20 06:01:40;;;;;;;3.05;1.50;;;;;;;18.01;62.74;95850.88;5027834;28;20111;-29
2023/05/20 06:17:34;;;;;;;2.75;1.00;;;;;;;18.01;62.85;95859.13;5033975;28;20587;-29
2023/05/20 06:46:53;;;;;;;3.08;1.20;;;;;;;17.94;62.26;95859.56;5033565;28;20080;-29
2023/05/20 07:02:46;;;;;;;2.05;1.30;;;;;;;18.11;61.71;95865.91;5026081;28;20051;-29
2023/05/20 07:18:38;;;;;;;2.15;1.10;;;;;;;17.98;62.44;95835.41;5033660;28;20572;-30
2023/05/20 07:31:58;;;;;;;6.15;1.20;;;;;;;18.02;62.37;95808.50;5033114;28;20524;-30
2023/05/20 07:47:52;;;;;;;2.03;1.25;;;;;;;17.90;62.57;95747.34;5032880;28;20132;-29
2023/05/20 08:03:44;;;;;;;1.73;1.20;;;;;;;17.98;61.98;95744.88;5029820;28;20192;-29
2023/05/20 08:19:36;;;;;;;3.45;2.08;;;;;;;17.89;62.11;95720.38;5036533;28;20175;-28
2023/05/20 08:32:44;;;;;;;4.63;2.30;;;;;;;18.06;61.10;95695.75;5038553;28;20035;-30
2023/05/20 08:35:10;;;;;;;3.13;1.80;;;;;;;18.02;61.17;95682.28;5036122;28;20487;-29
2023/05/20 08:47:57;;;;;;;3.30;1.25;;;;;;;18.09;61.29;95705.75;5035727;28;20084;-29
2023/05/20 09:03:49;;;;;;;2.88;1.63;;;;;;;17.93;61.80;95709.91;5028299;28;20396;-29
2023/05/20 09:19:42;;;;;;;1.38;1.08;;;;;;;18.16;61.25;95725.25;5035316;28;20031;-29
2023/05/20 09:48:38;;;;;;;2.05;1.42;;;;;;;18.13;61.91;95786.59;5034811;28;20104;-29
2023/05/20 10:04:33;;;;;;;2.38;1.60;;;;;;;18.30;62.11;95770.94;5036470;28;20140;-29
2023/05/20 10:20:26;;;;;;;2.33;1.40;;;;;;;17.95;63.92;95756.81;5034352;28;20087;-28
2023/05/20 10:36:26;;;;;;;3.67;2.55;;;;;;;18.33;62.45;95719.06;5033660;28;20108;-29
2023/05/20 10:49:17;;;;;;;3.17;1.50;;;;;;;18.29;62.58;95742.03;5033840;28;20121;-29
2023/05/20 11:05:11;;;;;;;4.10;1.50;;;;;;;18.27;62.65;95749.25;5028625;28;20055;-29
2023/05/20 11:21:04;;;;;;;5.00;1.85;;;;;;;18.09;63.40;95733.94;5033211;28;20083;-30
2023/05/20 11:50:23;;;;;;;2.63;1.27;;;;;;;18.36;62.48;95716.06;5033600;28;20032;-34
2023/05/20 12:06:16;;;;;;;4.70;1.90;;;;;;;18.24;63.22;95770.19;5026680;28;20044;-33
2023/05/20 12:22:08;;;;;;;4.45;1.33;;;;;;;18.25;63.42;95773.69;5032454;28;20076;-32
2023/05/20 12:35:29;;;;;;;4.10;1.55;;;;;;;18.31;63.09;95799.91;5036127;28;20036;-33
2023/05/20 12:37:55;;;;;;;3.08;1.40;;;;;;;18.36;62.85;95803.16;5031938;28;20407;-32
2023/05/20 12:50:38;;;;;;;2.13;1.25;;;;;;;18.17;63.95;95811.06;5036067;28;20113;-33
2023/05/20 13:07:08;;;;;;;2.45;1.50;;;;;;;18.33;63.82;95828.84;5036065;28;20723;-33
2023/05/20 13:23:01;;;;;;;2.10;1.48;;;;;;;18.45;63.76;95846.88;5035346;28;20110;-34
2023/05/20 13:36:09;;;;;;;3.47;1.92;;;;;;;18.27;64.25;95854.28;5035490;28;20040;-33
2023/05/20 13:52:01;;;;;;;2.50;1.70;;;;;;;18.21;64.70;95869.22;5034256;28;20159;-33
2023/05/20 14:07:53;;;;;;;2.80;1.80;;;;;;;18.33;64.15;95881.00;5035023;28;20056;-33
2023/05/20 14:23:45;;;;;;;3.33;1.90;;;;;;;18.53;63.69;95870.66;5034283;28;20132;-33
2023/05/20 14:36:50;;;;;;;4.05;1.80;;;;;;;18.36;64.61;95864.31;5039297;28;20048;-33
2023/05/20 14:52:42;;;;;;;2.83;1.98;;;;;;;18.43;64.64;95858.34;5036481;28;20507;-33
2023/05/20 15:08:59;;;;;;;1.90;1.45;;;;;;;18.56;63.89;95857.91;5026697;28;20052;-33
2023/05/20 15:22:22;;;;;;;5.90;2.25;;;;;;;18.64;63.48;95861.75;5033018;28;20068;-33
2023/05/20 15:38:15;;;;;;;5.13;2.10;;;;;;;18.67;62.97;95868.97;5033169;28;20515;-32
2023/05/20 15:54:07;;;;;;;4.80;1.85;;;;;;;18.38;63.42;95863.81;5033198;28;20515;-33
2023/05/20 16:23:52;;;;;;;4.35;1.50;;;;;;;18.53;63.87;95869.91;5036590;28;20029;-34
2023/05/20 16:39:45;;;;;;;2.55;1.30;;;;;;;18.47;64.27;95877.34;5036138;28;20377;-33
2023/05/20 17:09:08;;;;;;;3.15;1.50;;;;;;;18.36;64.82;95875.28;5028842;28;20068;-33
2023/05/20 17:25:00;;;;;;;5.05;2.03;;;;;;;18.40;64.24;95891.56;5035032;28;20444;-33
2023/05/20 17:40:52;;;;;;;2.70;1.30;;;;;;;18.51;63.20;95877.88;5034722;28;20040;-33
2023/05/20 17:54:10;;;;;;;3.72;1.45;;;;;;;18.58;63.02;95896.66;5035020;28;20035;-33
2023/05/20 18:10:09;;;;;;;2.35;1.50;;;;;;;18.38;63.44;95897.53;5027547;28;20560;-34
2023/05/20 18:12:34;;;;;;;5.63;1.80;;;;;;;18.36;63.62;95894.50;5034727;28;20116;-33
2023/05/20 18:25:06;;;;;;;3.55;1.65;;;;;;;18.46;62.54;95909.53;5034186;28;20032;-33
2023/05/20 18:40:58;;;;;;;4.30;1.83;;;;;;;18.26;63.54;95904.19;5033934;28;20120;-33
2023/05/20 19:10:17;;;;;;;4.32;1.60;;;;;;;18.27;63.53;95933.91;5026698;28;20057;-33
2023/05/20 19:26:09;;;;;;;4.38;1.98;;;;;;;18.23;63.23;95947.09;5033033;28;20037;-33
2023/05/20 19:42:02;;;;;;;4.30;2.00;;;;;;;18.25;63.22;95952.84;5033587;28;20078;-31
2023/05/20 19:55:26;;;;;;;3.38;1.77;;;;;;;18.39;62.39;95964.16;5032525;28;20048;-33
2023/05/20 20:11:18;;;;;;;4.40;1.67;;;;;;;18.37;62.59;95966.66;5030178;28;20491;-33
2023/05/20 20:27:12;;;;;;;6.95;2.42;;;;;;;18.38;62.43;95971.66;5043535;28;20115;-33
2023/05/20 20:29:39;;;;;;;6.00;2.10;;;;;;;18.26;62.76;95962.59;5036740;28;20036;-33
2023/05/20 20:42:11;;;;;;;6.25;1.92;;;;;;;18.60;62.18;95962.81;5036353;28;20028;-33
2023/05/20 20:58:05;;;;;;;2.17;1.40;;;;;;;18.40;62.69;95954.69;5035080;28;20132;-33
2023/05/20 21:11:21;;;;;;;5.65;1.77;;;;;;;18.38;63.03;95962.66;5043363;28;20032;-33
2023/05/20 21:28:04;;;;;;;4.28;1.80;;;;;;;18.41;61.96;95945.97;5035213;28;20590;-32
2023/05/20 21:57:23;;;;;;;3.08;2.03;;;;;;;18.39;61.96;95942.19;5041992;28;20496;-33
2023/05/20 22:13:16;;;;;;;5.10;1.70;;;;;;;18.41;61.51;95939.72;5027581;28;20103;-33
2023/05/20 22:29:08;;;;;;;3.60;1.70;;;;;;;18.33;61.30;95944.16;5039726;28;20036;-33
2023/05/20 22:42:22;;;;;;;2.17;1.55;;;;;;;18.36;61.45;95946.69;5033978;28;20116;-33
2023/05/20 22:58:15;;;;;;;2.65;1.42;;;;;;;18.12;61.48;95929.78;5033348;28;20519;-33
2023/05/20 23:14:07;;;;;;;3.58;2.03;;;;;;;18.29;61.28;95914.94;5030038;28;20120;-33
2023/05/20 23:16:35;;;;;;;2.20;1.58;;;;;;;18.15;61.54;95923.34;5040886;28;20116;-34
2023/05/20 23:19:00;;;;;;;3.17;1.92;;;;;;;18.26;61.41;95906.94;5033446;28;20075;-33
2023/05/20 23:21:25;;;;;;;2.60;1.92;;;;;;;18.20;61.79;95901.41;5033671;28;20376;-32
2023/05/20 23:23:51;;;;;;;3.85;2.00;;;;;;;18.24;61.56;95912.91;5033303;28;20029;-32
2023/05/20 23:26:16;;;;;;;2.60;1.55;;;;;;;18.09;62.07;95906.81;5033025;28;20122;-33
2023/05/20 23:28:43;;;;;;;3.13;1.70;;;;;;;18.30;61.17;95905.44;5033412;28;20041;-33
2023/05/20 23:31:08;;;;;;;4.40;1.88;;;;;;;18.39;60.84;95909.25;5040244;28;20472;-33
2023/05/20 23:33:34;;;;;;;4.00;1.70;;;;;;;18.17;61.56;95904.38;5033453;28;20076;-33
2023/05/20 23:35:59;;;;;;;2.67;1.85;;;;;;;18.36;61.48;95904.75;5033490;28;20116;-33
2023/05/20 23:38:25;;;;;;;3.30;1.70;;;;;;;18.27;61.32;95916.69;5033175;28;20021;-32
2023/05/20 23:40:50;;;;;;;4.53;1.60;;;;;;;18.42;60.93;95908.28;5032695;28;20041;-33
2023/05/20 23:43:16;;;;;;;2.85;1.77;;;;;;;18.17;61.69;95910.63;5033561;28;20018;-33
2023/05/20 23:45:41;;;;;;;4.30;1.70;;;;;;;18.37;61.13;95903.50;5033030;28;20017;-33
2023/05/20 23:48:11;;;;;;;5.03;1.50;;;;;;;18.42;60.72;95902.78;5033620;28;20021;-33
2023/05/20 23:50:37;;;;;;;4.53;1.80;;;;;;;18.39;60.75;95903.78;5033316;28;20051;-33
2023/05/20 23:53:03;;;;;;;3.90;1.48;;;;;;;18.30;60.97;95901.94;5033112;28;20114;-33
2023/05/20 23:55:28;;;;;;;6.97;1.80;;;;;;;18.23;61.01;95903.16;5032854;28;20100;-33
2023/05/20 23:57:54;;;;;;;3.67;1.67;;;;;;;18.36;60.76;95910.22;5032911;28;20029;-34
